Time;durP1;ratioP1;P1;durP2;ratioP2;P2;SDS_P1;SDS_P2;PMS_P1;PMS_P2;Temp;Humidity;BMP_temperature;BMP_pressure;BME280_temperature;BME280_humidity;BME280_pressure;Samples;Min_cycle;Max_cycle;Signal;HPM_P1;HPM_P2
2022/04/14 00:02:21;;;;;;;;;;;12.40;64.60;;;;;;4995577;28;20026;-63
2022/04/14 00:04:46;;;;;;;;;;;12.40;65.00;;;;;;4995701;28;19914;-63
2022/04/14 00:07:12;;;;;;;;;;;12.30;65.40;;;;;;4994945;28;19918;-64
2022/04/14 00:09:37;;;;;;;;;;;12.40;65.40;;;;;;4994560;28;19909;-65
2022/04/14 00:12:03;;;;;;;;;;;12.30;65.90;;;;;;4994407;28;20040;-62
2022/04/14 00:14:29;;;;;;;;;;;12.30;65.60;;;;;;4993105;28;19956;-62
2022/04/14 00:16:54;;;;;;;;;;;12.20;66.00;;;;;;4994289;28;19936;-63
2022/04/14 00:19:20;;;;;;;;;;;12.20;65.70;;;;;;4994139;28;19922;-63
2022/04/14 00:21:45;;;;;;;;;;;12.20;66.40;;;;;;4994572;28;19925;-63
2022/04/14 00:24:11;;;;;;;;;;;12.20;65.50;;;;;;4994493;28;19910;-62
2022/04/14 00:26:37;;;;;;;;;;;12.20;65.60;;;;;;4994104;28;19918;-62
2022/04/14 00:29:02;;;;;;;;;;;12.20;65.50;;;;;;4994385;28;20366;-62
2022/04/14 00:31:28;;;;;;;;;;;12.20;66.00;;;;;;4994288;28;19944;-63
2022/04/14 00:33:53;;;;;;;;;;;12.20;66.10;;;;;;4994419;28;19937;-63
2022/04/14 00:36:19;;;;;;;;;;;12.20;65.80;;;;;;4994182;28;19910;-63
2022/04/14 00:38:44;;;;;;;;;;;12.20;65.40;;;;;;4994329;28;19920;-62
2022/04/14 00:41:10;;;;;;;;;;;12.20;65.50;;;;;;4994028;28;19917;-65
2022/04/14 00:43:37;;;;;;;;;;;12.20;66.00;;;;;;4994105;28;19910;-63
2022/04/14 00:46:03;;;;;;;;;;;12.10;66.10;;;;;;4994298;28;19925;-63
2022/04/14 00:48:30;;;;;;;;;;;12.10;65.80;;;;;;4994384;28;19910;-64
2022/04/14 00:50:56;;;;;;;;;;;12.20;66.00;;;;;;4994170;28;20001;-64
2022/04/14 00:53:22;;;;;;;;;;;12.10;66.00;;;;;;4993867;28;19957;-62
2022/04/14 00:55:48;;;;;;;;;;;12.10;66.20;;;;;;4993933;28;19910;-63
2022/04/14 00:58:14;;;;;;;;;;;12.20;66.40;;;;;;4994117;28;20409;-63
2022/04/14 01:00:39;;;;;;;;;;;12.10;66.70;;;;;;4994294;28;19913;-64
2022/04/14 01:03:05;;;;;;;;;;;12.10;66.80;;;;;;4996780;28;19914;-62
2022/04/14 01:05:31;;;;;;;;;;;12.10;66.60;;;;;;4997732;28;19933;-64
2022/04/14 01:07:57;;;;;;;;;;;12.20;66.20;;;;;;4997645;28;19945;-62
2022/04/14 01:10:25;;;;;;;;;;;12.10;66.50;;;;;;4997815;28;20458;-63
2022/04/14 01:12:51;;;;;;;;;;;12.20;66.20;;;;;;4997436;28;19910;-63
2022/04/14 01:15:17;;;;;;;;;;;12.20;66.20;;;;;;4997391;28;19955;-65
2022/04/14 01:17:43;;;;;;;;;;;12.10;66.30;;;;;;4997290;28;20404;-62
2022/04/14 01:20:11;;;;;;;;;;;12.10;66.40;;;;;;4997298;28;20400;-62
2022/04/14 01:22:57;;;;;;;;;;;12.00;66.90;;;;;;4997372;28;19965;-63
2022/04/14 01:25:23;;;;;;;;;;;11.80;67.30;;;;;;4996498;28;19917;-66
2022/04/14 01:27:50;;;;;;;;;;;11.90;67.40;;;;;;4997373;28;20413;-62
2022/04/14 01:30:16;;;;;;;;;;;11.90;67.10;;;;;;4997289;28;19914;-64
2022/04/14 01:32:41;;;;;;;;;;;11.90;66.70;;;;;;4997067;28;20285;-63
2022/04/14 01:35:07;;;;;;;;;;;11.90;67.20;;;;;;4997466;28;19914;-64
2022/04/14 01:37:32;;;;;;;;;;;11.80;67.80;;;;;;4997298;28;19910;-64
2022/04/14 01:39:58;;;;;;;;;;;11.80;67.80;;;;;;4996836;28;19992;-68
2022/04/14 01:42:24;;;;;;;;;;;11.80;68.10;;;;;;4997120;28;19983;-63
2022/04/14 01:44:49;;;;;;;;;;;11.70;68.00;;;;;;4996988;28;20265;-63
2022/04/14 01:47:15;;;;;;;;;;;11.70;68.00;;;;;;4996698;28;19929;-63
2022/04/14 01:49:40;;;;;;;;;;;11.70;68.30;;;;;;4997187;28;19920;-62
2022/04/14 01:52:06;;;;;;;;;;;11.70;68.80;;;;;;4996789;28;19964;-62
2022/04/14 01:54:31;;;;;;;;;;;11.70;68.80;;;;;;4996844;28;20001;-62
2022/04/14 01:56:57;;;;;;;;;;;11.60;68.60;;;;;;4996683;28;20424;-62
2022/04/14 01:59:23;;;;;;;;;;;11.50;68.70;;;;;;4996644;28;19917;-62
2022/04/14 02:01:48;;;;;;;;;;;11.60;68.70;;;;;;4996730;28;19997;-62
2022/04/14 02:04:14;;;;;;;;;;;11.50;69.30;;;;;;4996574;28;20370;-62
2022/04/14 02:06:40;;;;;;;;;;;11.40;69.70;;;;;;4996638;28;19925;-63
2022/04/14 02:09:05;;;;;;;;;;;11.30;70.10;;;;;;4996427;28;19960;-62
2022/04/14 02:11:31;;;;;;;;;;;11.30;70.40;;;;;;4996703;28;19917;-62
2022/04/14 02:13:56;;;;;;;;;;;11.30;70.60;;;;;;4995946;28;19910;-67
2022/04/14 02:16:22;;;;;;;;;;;11.40;70.20;;;;;;4996359;28;19953;-62
2022/04/14 02:18:47;;;;;;;;;;;11.30;70.50;;;;;;4996151;28;20325;-65
2022/04/14 02:21:13;;;;;;;;;;;11.30;70.30;;;;;;4996181;28;19957;-63
2022/04/14 02:23:38;;;;;;;;;;;11.50;69.90;;;;;;4996284;28;19913;-63
2022/04/14 02:26:04;;;;;;;;;;;11.50;70.00;;;;;;4996529;28;19917;-62
2022/04/14 02:28:30;;;;;;;;;;;11.40;69.70;;;;;;4996451;28;20001;-62
2022/04/14 02:30:55;;;;;;;;;;;11.50;69.90;;;;;;4996303;28;19961;-62
2022/04/14 02:33:21;;;;;;;;;;;11.40;69.50;;;;;;4995950;28;19972;-65
2022/04/14 02:35:46;;;;;;;;;;;11.50;69.30;;;;;;4996200;28;19913;-63
2022/04/14 02:38:12;;;;;;;;;;;11.50;69.40;;;;;;4996444;28;20004;-62
2022/04/14 02:40:38;;;;;;;;;;;11.60;69.40;;;;;;4996246;28;19910;-62
2022/04/14 02:43:03;;;;;;;;;;;11.60;69.00;;;;;;4996057;28;20013;-63
2022/04/14 02:45:29;;;;;;;;;;;11.60;69.20;;;;;;4995881;28;19910;-62
2022/04/14 02:47:54;;;;;;;;;;;11.50;69.10;;;;;;4996710;28;19913;-63
2022/04/14 02:50:20;;;;;;;;;;;11.40;69.30;;;;;;4996605;28;20389;-65
2022/04/14 02:52:49;;;;;;;;;;;11.40;70.00;;;;;;4997762;28;20373;-62
2022/04/14 02:55:16;;;;;;;;;;;11.30;70.40;;;;;;4998099;28;19910;-63
2022/04/14 02:57:42;;;;;;;;;;;11.30;69.70;;;;;;4997413;28;20355;-62
2022/04/14 03:00:11;;;;;;;;;;;11.30;70.00;;;;;;4996866;28;19914;-62
2022/04/14 03:02:40;;;;;;;;;;;11.40;69.30;;;;;;4997054;28;20028;-62
2022/04/14 03:05:07;;;;;;;;;;;11.30;69.90;;;;;;4997552;28;19917;-62
2022/04/14 03:07:32;;;;;;;;;;;11.20;70.20;;;;;;4998242;28;19964;-62
2022/04/14 03:09:58;;;;;;;;;;;11.10;70.30;;;;;;4998868;28;19910;-63
2022/04/14 03:12:24;;;;;;;;;;;11.20;70.60;;;;;;4998228;28;19972;-62
2022/04/14 03:14:50;;;;;;;;;;;11.10;70.70;;;;;;4998484;28;19952;-62
2022/04/14 03:17:16;;;;;;;;;;;11.10;70.60;;;;;;4996343;28;20297;-62
2022/04/14 03:19:41;;;;;;;;;;;11.20;70.80;;;;;;4996322;28;19928;-64
2022/04/14 03:22:07;;;;;;;;;;;11.20;70.70;;;;;;4998802;28;19965;-62
2022/04/14 03:24:51;;;;;;;;;;;11.20;70.60;;;;;;4999544;28;19917;-62
2022/04/14 03:27:16;;;;;;;;;;;11.20;70.80;;;;;;4999197;28;20285;-63
2022/04/14 03:29:42;;;;;;;;;;;11.20;70.80;;;;;;4997401;28;19910;-62
2022/04/14 03:32:08;;;;;;;;;;;11.20;70.60;;;;;;5002987;28;19972;-62
2022/04/14 03:34:33;;;;;;;;;;;11.20;70.50;;;;;;5006918;28;19933;-70
2022/04/14 03:36:59;;;;;;;;;;;11.20;70.50;;;;;;5008245;28;19936;-66
2022/04/14 03:39:24;;;;;;;;;;;11.20;70.80;;;;;;5008731;28;19941;-63
2022/04/14 03:41:50;;;;;;;;;;;11.20;70.70;;;;;;4999965;28;20004;-62
2022/04/14 03:44:15;;;;;;;;;;;11.10;71.40;;;;;;4998780;28;19914;-63
2022/04/14 03:46:41;;;;;;;;;;;11.10;71.00;;;;;;4998370;28;20366;-63
2022/04/14 03:49:06;;;;;;;;;;;11.10;70.70;;;;;;4994949;28;19909;-64
2022/04/14 03:51:34;;;;;;;;;;;11.10;70.90;;;;;;4994612;28;19910;-66
2022/04/14 03:53:59;;;;;;;;;;;11.10;70.80;;;;;;4994636;28;19948;-66
2022/04/14 03:56:25;;;;;;;;;;;11.10;70.80;;;;;;4994895;28;19961;-62
2022/04/14 03:58:50;;;;;;;;;;;11.00;71.00;;;;;;4994587;28;19910;-62
2022/04/14 04:01:16;;;;;;;;;;;11.00;71.70;;;;;;4994659;28;19964;-65
2022/04/14 04:03:41;;;;;;;;;;;11.00;72.00;;;;;;4994335;28;19910;-62
2022/04/14 04:06:07;;;;;;;;;;;11.00;71.50;;;;;;4994463;28;19922;-63
2022/04/14 04:08:32;;;;;;;;;;;10.90;71.90;;;;;;4994477;28;19913;-66
2022/04/14 04:10:58;;;;;;;;;;;10.80;72.10;;;;;;4994571;28;19917;-68
2022/04/14 04:13:24;;;;;;;;;;;10.80;72.50;;;;;;4994675;28;19917;-62
2022/04/14 04:15:50;;;;;;;;;;;10.90;72.50;;;;;;4994392;28;19914;-63
2022/04/14 04:18:15;;;;;;;;;;;10.80;72.50;;;;;;4994362;28;20291;-62
2022/04/14 04:20:41;;;;;;;;;;;10.70;72.70;;;;;;4994402;28;19910;-62
2022/04/14 04:23:06;;;;;;;;;;;10.80;72.80;;;;;;4994307;28;20304;-63
2022/04/14 04:25:32;;;;;;;;;;;10.80;72.80;;;;;;4994424;28;20378;-62
2022/04/14 04:27:58;;;;;;;;;;;10.70;72.70;;;;;;4994423;28;19980;-62
2022/04/14 04:30:24;;;;;;;;;;;10.70;72.80;;;;;;4994607;28;19937;-63
2022/04/14 04:32:50;;;;;;;;;;;10.70;72.80;;;;;;4994145;28;20279;-63
2022/04/14 04:35:15;;;;;;;;;;;10.80;72.70;;;;;;4994211;28;19910;-63
2022/04/14 04:37:41;;;;;;;;;;;10.80;72.10;;;;;;4997300;28;20281;-64
2022/04/14 04:40:07;;;;;;;;;;;11.00;72.00;;;;;;4997974;28;19961;-64
2022/04/14 04:42:33;;;;;;;;;;;11.10;70.90;;;;;;4998235;28;19917;-62
2022/04/14 04:44:58;;;;;;;;;;;11.00;71.40;;;;;;4998231;28;19952;-63
2022/04/14 04:47:24;;;;;;;;;;;11.00;71.30;;;;;;4998191;28;19944;-63
2022/04/14 04:49:49;;;;;;;;;;;11.00;71.80;;;;;;4998355;28;19917;-63
2022/04/14 04:52:15;;;;;;;;;;;11.00;71.60;;;;;;4998369;28;20380;-63
2022/04/14 04:54:41;;;;;;;;;;;10.80;72.20;;;;;;4997151;28;20340;-62
2022/04/14 04:57:06;;;;;;;;;;;10.90;70.40;;;;;;4997820;28;19909;-62
2022/04/14 04:59:33;;;;;;;;;;;11.10;70.70;;;;;;4997792;28;19917;-62
2022/04/14 05:01:59;;;;;;;;;;;11.20;69.70;;;;;;4997568;28;19917;-62
2022/04/14 05:04:24;;;;;;;;;;;11.30;69.60;;;;;;4997921;28;19910;-62
2022/04/14 05:06:50;;;;;;;;;;;11.20;69.70;;;;;;4997707;28;19926;-62
2022/04/14 05:09:16;;;;;;;;;;;11.30;70.20;;;;;;4997882;28;19949;-63
2022/04/14 05:11:42;;;;;;;;;;;11.30;69.60;;;;;;4997607;28;19917;-62
2022/04/14 05:14:08;;;;;;;;;;;11.70;65.70;;;;;;4997629;28;20285;-62
2022/04/14 05:16:34;;;;;;;;;;;12.70;60.00;;;;;;4997317;28;20334;-62
2022/04/14 05:18:59;;;;;;;;;;;13.60;57.10;;;;;;4997485;28;19976;-62
2022/04/14 05:21:25;;;;;;;;;;;14.40;54.60;;;;;;4997468;28;19933;-64
2022/04/14 05:23:50;;;;;;;;;;;14.90;52.80;;;;;;4997302;28;19910;-65
2022/04/14 05:26:16;;;;;;;;;;;15.20;51.60;;;;;;4997416;28;19961;-64
2022/04/14 05:28:41;;;;;;;;;;;15.30;51.10;;;;;;4997574;28;19910;-62
2022/04/14 05:31:07;;;;;;;;;;;15.50;50.50;;;;;;4997371;28;19910;-64
2022/04/14 05:33:33;;;;;;;;;;;15.60;50.40;;;;;;4997368;28;19910;-63
2022/04/14 05:35:58;;;;;;;;;;;15.80;49.50;;;;;;4997196;28;19910;-66
2022/04/14 05:38:24;;;;;;;;;;;16.00;49.50;;;;;;4997399;28;19917;-63
2022/04/14 05:40:50;;;;;;;;;;;16.00;49.20;;;;;;4997090;28;20019;-66
2022/04/14 05:43:17;;;;;;;;;;;16.00;49.10;;;;;;4996830;28;20049;-65
2022/04/14 05:45:44;;;;;;;;;;;16.00;49.00;;;;;;4996960;28;19933;-63
2022/04/14 05:48:12;;;;;;;;;;;16.20;48.60;;;;;;4995515;28;19920;-65
2022/04/14 05:50:37;;;;;;;;;;;16.00;50.10;;;;;;4996791;28;19910;-63
2022/04/14 05:53:03;;;;;;;;;;;15.70;51.70;;;;;;4996714;28;19916;-63
2022/04/14 05:55:29;;;;;;;;;;;15.30;53.50;;;;;;4996923;28;19910;-63
2022/04/14 05:57:54;;;;;;;;;;;15.00;54.60;;;;;;4996883;28;19909;-63
2022/04/14 06:00:20;;;;;;;;;;;14.80;55.70;;;;;;4995758;28;19914;-61
2022/04/14 06:02:45;;;;;;;;;;;14.40;58.50;;;;;;4996137;28;19996;-58
2022/04/14 06:05:12;;;;;;;;;;;14.20;59.70;;;;;;4996616;28;20362;-61
2022/04/14 06:07:38;;;;;;;;;;;14.20;60.10;;;;;;4996114;28;20358;-65
2022/04/14 06:10:03;;;;;;;;;;;14.40;60.40;;;;;;4996452;28;19910;-62
2022/04/14 06:12:29;;;;;;;;;;;14.70;59.50;;;;;;4996241;28;20285;-62
2022/04/14 06:14:54;;;;;;;;;;;15.00;58.20;;;;;;4996480;28;19985;-60
2022/04/14 06:17:20;;;;;;;;;;;15.20;57.40;;;;;;4995854;28;19949;-63
2022/04/14 06:19:46;;;;;;;;;;;15.40;56.50;;;;;;4995852;28;19917;-63
2022/04/14 06:22:11;;;;;;;;;;;15.60;56.10;;;;;;4995823;28;20286;-62
2022/04/14 06:24:37;;;;;;;;;;;15.70;55.70;;;;;;4996044;28;19909;-62
2022/04/14 06:27:03;;;;;;;;;;;16.00;56.40;;;;;;4995764;28;19918;-62
2022/04/14 06:29:28;;;;;;;;;;;16.20;55.30;;;;;;4986984;28;19996;-62
2022/04/14 06:31:54;;;;;;;;;;;16.30;54.00;;;;;;4995523;28;20007;-62
2022/04/14 06:34:19;;;;;;;;;;;16.50;53.30;;;;;;4995436;28;19996;-61
2022/04/14 06:36:45;;;;;;;;;;;16.40;53.50;;;;;;4984460;28;19914;-65
2022/04/14 06:39:12;;;;;;;;;;;16.60;53.40;;;;;;4986183;28;20267;-65
2022/04/14 06:41:39;;;;;;;;;;;16.70;53.10;;;;;;4985843;28;19986;-64
2022/04/14 06:44:05;;;;;;;;;;;16.70;52.40;;;;;;4984307;28;20378;-62
2022/04/14 06:46:30;;;;;;;;;;;16.90;52.60;;;;;;4994896;28;20016;-60
2022/04/14 06:48:56;;;;;;;;;;;17.10;52.30;;;;;;4995021;28;20316;-61
2022/04/14 06:51:22;;;;;;;;;;;16.90;53.30;;;;;;4994972;28;19909;-66
2022/04/14 06:53:48;;;;;;;;;;;16.80;53.80;;;;;;4993944;28;19910;-62
2022/04/14 06:56:14;;;;;;;;;;;16.90;54.10;;;;;;4994584;28;19914;-61
2022/04/14 06:58:41;;;;;;;;;;;17.00;55.00;;;;;;4994428;28;20412;-61
2022/04/14 07:01:07;;;;;;;;;;;17.10;54.60;;;;;;4993951;28;19936;-61
2022/04/14 07:03:32;;;;;;;;;;;17.00;55.50;;;;;;4994196;28;19992;-61
2022/04/14 07:06:00;;;;;;;;;;;16.50;58.40;;;;;;4994353;28;19925;-61
2022/04/14 07:08:26;;;;;;;;;;;16.30;59.30;;;;;;4995213;28;19933;-61
2022/04/14 07:10:52;;;;;;;;;;;16.30;60.00;;;;;;4995038;28;19910;-61
2022/04/14 07:13:18;;;;;;;;;;;16.50;59.70;;;;;;4994755;28;19914;-62
2022/04/14 07:15:44;;;;;;;;;;;16.70;59.10;;;;;;4995622;28;19914;-60
2022/04/14 07:18:09;;;;;;;;;;;17.10;58.30;;;;;;4994864;28;19972;-59
2022/04/14 07:20:35;;;;;;;;;;;17.40;57.00;;;;;;4995014;28;19957;-59
2022/04/14 07:23:02;;;;;;;;;;;17.70;56.90;;;;;;4995043;28;19910;-62
2022/04/14 07:25:30;;;;;;;;;;;17.90;55.80;;;;;;4985608;28;19920;-62
2022/04/14 07:27:56;;;;;;;;;;;17.90;55.50;;;;;;4993393;28;20362;-59
2022/04/14 07:30:23;;;;;;;;;;;17.90;54.20;;;;;;4993800;28;19993;-61
2022/04/14 07:32:49;;;;;;;;;;;18.00;53.60;;;;;;4993939;28;19910;-63
2022/04/14 07:35:15;;;;;;;;;;;18.20;52.80;;;;;;4993764;28;19960;-63
2022/04/14 07:37:41;;;;;;;;;;;18.50;50.90;;;;;;4993219;28;19914;-63
2022/04/14 07:40:10;;;;;;;;;;;18.80;49.80;;;;;;4993572;28;20060;-62
2022/04/14 07:42:36;;;;;;;;;;;19.00;48.30;;;;;;4993430;28;20366;-63
2022/04/14 07:45:02;;;;;;;;;;;18.70;48.80;;;;;;4975988;28;19910;-61
2022/04/14 07:47:28;;;;;;;;;;;18.20;50.40;;;;;;4979638;28;19994;-60
2022/04/14 07:49:53;;;;;;;;;;;18.10;50.50;;;;;;4990584;28;19953;-62
2022/04/14 07:52:19;;;;;;;;;;;18.10;51.20;;;;;;4990238;28;19910;-66
2022/04/14 07:54:44;;;;;;;;;;;18.40;51.10;;;;;;4990660;28;19909;-62
2022/04/14 07:57:10;;;;;;;;;;;18.70;51.50;;;;;;4990507;28;19960;-60
2022/04/14 07:59:36;;;;;;;;;;;19.10;51.00;;;;;;4993298;28;19957;-59
2022/04/14 08:02:01;;;;;;;;;;;19.20;50.90;;;;;;4993504;28;19910;-59
2022/04/14 08:04:27;;;;;;;;;;;19.20;49.30;;;;;;4990517;28;19913;-61
2022/04/14 08:06:53;;;;;;;;;;;18.90;49.80;;;;;;4990399;28;19924;-63
2022/04/14 08:09:19;;;;;;;;;;;18.90;50.20;;;;;;4989924;28;19918;-60
2022/04/14 08:11:46;;;;;;;;;;;18.70;50.70;;;;;;4989558;28;19933;-61
2022/04/14 08:14:11;;;;;;;;;;;18.80;51.20;;;;;;4988931;28;19918;-62
2022/04/14 08:16:37;;;;;;;;;;;18.80;50.90;;;;;;4982922;28;19910;-60
2022/04/14 08:19:02;;;;;;;;;;;19.00;51.10;;;;;;4984605;28;20037;-62
2022/04/14 08:21:28;;;;;;;;;;;19.20;51.20;;;;;;4984008;28;19910;-63
2022/04/14 08:23:53;;;;;;;;;;;19.40;50.10;;;;;;4978298;28;19914;-62
2022/04/14 08:26:19;;;;;;;;;;;19.60;49.50;;;;;;4984097;28;19925;-62
2022/04/14 08:28:46;;;;;;;;;;;19.80;50.70;;;;;;4982438;28;20445;-65
2022/04/14 08:31:11;;;;;;;;;;;19.80;48.90;;;;;;4987313;28;19914;-62
2022/04/14 08:33:38;;;;;;;;;;;19.70;50.20;;;;;;4993961;28;20264;-67
2022/04/14 08:36:04;;;;;;;;;;;19.60;50.90;;;;;;4993858;28;19964;-64
2022/04/14 08:38:30;;;;;;;;;;;19.30;52.00;;;;;;4980312;28;19914;-63
2022/04/14 08:41:00;;;;;;;;;;;19.00;52.30;;;;;;4993394;28;19918;-77
2022/04/14 08:43:33;;;;;;;;;;;18.50;52.30;;;;;;4992233;28;20292;-63
2022/04/14 08:45:59;;;;;;;;;;;18.00;52.60;;;;;;4993330;28;19957;-62
2022/04/14 08:48:26;;;;;;;;;;;17.80;52.50;;;;;;4992808;28;19914;-64
2022/04/14 08:50:52;;;;;;;;;;;17.70;53.40;;;;;;4992859;28;19917;-59
2022/04/14 08:53:18;;;;;;;;;;;17.70;54.20;;;;;;4991318;28;20258;-65
2022/04/14 08:55:44;;;;;;;;;;;17.90;54.70;;;;;;4993144;28;19956;-61
2022/04/14 08:58:13;;;;;;;;;;;18.10;52.40;;;;;;4992091;28;20365;-62
2022/04/14 09:00:39;;;;;;;;;;;18.20;52.10;;;;;;4990325;28;19914;-62
2022/04/14 09:03:05;;;;;;;;;;;18.30;52.10;;;;;;4991064;28;19910;-60
2022/04/14 09:05:30;;;;;;;;;;;18.30;52.20;;;;;;4990211;28;19986;-62
2022/04/14 09:07:56;;;;;;;;;;;18.60;51.90;;;;;;4983233;28;19918;-61
2022/04/14 09:10:22;;;;;;;;;;;18.80;51.50;;;;;;4992456;28;20354;-61
2022/04/14 09:12:48;;;;;;;;;;;19.00;51.10;;;;;;4992514;28;19951;-62
2022/04/14 09:15:15;;;;;;;;;;;19.30;51.90;;;;;;4992478;28;19964;-61
2022/04/14 09:17:40;;;;;;;;;;;19.60;50.60;;;;;;4983273;28;20362;-60
2022/04/14 09:20:24;;;;;;;;;;;19.80;51.00;;;;;;4983692;28;19969;-60
2022/04/14 09:23:09;;;;;;;;;;;20.00;50.00;;;;;;4993139;28;19917;-60
2022/04/14 09:25:34;;;;;;;;;;;19.80;49.40;;;;;;4995464;28;19910;-61
2022/04/14 09:28:09;;;;;;;;;;;19.70;49.90;;;;;;4993881;28;20382;-60
2022/04/14 09:30:34;;;;;;;;;;;19.60;50.40;;;;;;4998012;28;19910;-61
2022/04/14 09:33:01;;;;;;;;;;;19.70;51.50;;;;;;4996578;28;20230;-61
2022/04/14 09:35:31;;;;;;;;;;;19.90;52.00;;;;;;4999803;28;19926;-61
2022/04/14 09:38:13;;;;;;;;;;;20.00;52.00;;;;;;5004407;28;19944;-63
2022/04/14 09:40:39;;;;;;;;;;;20.00;52.80;;;;;;5004311;28;19914;-63
2022/04/14 09:43:05;;;;;;;;;;;20.00;51.40;;;;;;4991696;28;19917;-61
2022/04/14 09:45:32;;;;;;;;;;;19.30;51.90;;;;;;4995420;28;20338;-61
2022/04/14 09:48:10;;;;;;;;;;;19.20;53.30;;;;;;5000044;28;19933;-66
2022/04/14 09:50:40;;;;;;;;;;;18.90;52.60;;;;;;4996738;28;19926;-60
2022/04/14 09:53:09;;;;;;;;;;;18.40;52.90;;;;;;4996060;28;19924;-60
2022/04/14 09:55:38;;;;;;;;;;;18.10;53.80;;;;;;4996163;28;20377;-63
2022/04/14 09:58:06;;;;;;;;;;;18.00;53.80;;;;;;4996201;28;19993;-61
2022/04/14 10:00:36;;;;;;;;;;;18.10;53.50;;;;;;4996337;28;20277;-61
2022/04/14 10:03:14;;;;;;;;;;;18.20;52.80;;;;;;4996854;28;19914;-62
2022/04/14 10:05:40;;;;;;;;;;;18.10;52.20;;;;;;4996618;28;19910;-61
2022/04/14 10:08:09;;;;;;;;;;;18.00;51.40;;;;;;4996497;28;19921;-61
2022/04/14 10:10:36;;;;;;;;;;;18.00;51.60;;;;;;4995930;28;19914;-60
2022/04/14 10:13:05;;;;;;;;;;;18.10;52.40;;;;;;4995765;28;20298;-61
2022/04/14 10:15:34;;;;;;;;;;;18.20;51.50;;;;;;4996242;28;19910;-61
2022/04/14 10:18:10;;;;;;;;;;;18.50;51.00;;;;;;4995811;28;19938;-61
2022/04/14 10:20:37;;;;;;;;;;;18.60;49.60;;;;;;4995650;28;20329;-62
2022/04/14 10:23:02;;;;;;;;;;;19.00;48.20;;;;;;4995638;28;19909;-61
2022/04/14 10:25:28;;;;;;;;;;;19.40;48.50;;;;;;4995804;28;20389;-61
2022/04/14 10:27:56;;;;;;;;;;;19.80;47.30;;;;;;4995997;28;19918;-66
2022/04/14 10:30:21;;;;;;;;;;;19.80;45.80;;;;;;4995351;28;20393;-62
2022/04/14 10:32:47;;;;;;;;;;;19.70;45.90;;;;;;4996227;28;19921;-62
2022/04/14 10:35:12;;;;;;;;;;;19.30;46.50;;;;;;4995469;28;19937;-69
2022/04/14 10:37:42;;;;;;;;;;;19.20;47.30;;;;;;4995665;28;20262;-63
2022/04/14 10:40:08;;;;;;;;;;;19.20;46.90;;;;;;4995345;28;19909;-63
2022/04/14 10:42:34;;;;;;;;;;;19.00;46.30;;;;;;4996238;28;19916;-65
2022/04/14 10:45:13;;;;;;;;;;;19.10;45.80;;;;;;4996379;28;19909;-68
2022/04/14 10:47:42;;;;;;;;;;;19.20;45.40;;;;;;4993906;28;19917;-64
2022/04/14 10:50:21;;;;;;;;;;;19.40;43.80;;;;;;4993873;28;20294;-63
2022/04/14 10:53:02;;;;;;;;;;;19.40;44.70;;;;;;4995100;28;19921;-63
2022/04/14 10:55:38;;;;;;;;;;;19.40;43.50;;;;;;4994505;28;19918;-64
2022/04/14 10:58:05;;;;;;;;;;;19.70;43.70;;;;;;4993697;28;19913;-64
2022/04/14 11:00:35;;;;;;;;;;;19.90;41.60;;;;;;4994424;28;19910;-64
2022/04/14 11:03:11;;;;;;;;;;;19.90;41.70;;;;;;4992223;28;19916;-62
2022/04/14 11:05:37;;;;;;;;;;;20.00;41.80;;;;;;4994097;28;20424;-65
2022/04/14 11:08:22;;;;;;;;;;;20.10;42.10;;;;;;4994580;28;19914;-60
2022/04/14 11:11:07;;;;;;;;;;;20.00;44.30;;;;;;4996501;28;20331;-60
2022/04/14 11:13:50;;;;;;;;;;;20.20;44.70;;;;;;4994665;28;19910;-61
2022/04/14 11:16:44;;;;;;;;;;;20.20;44.60;;;;;;4993848;28;19990;-64
2022/04/14 11:19:18;;;;;;;;;;;20.10;44.90;;;;;;4992227;28;19922;-66
2022/04/14 11:22:03;;;;;;;;;;;20.00;46.20;;;;;;4993848;28;19914;-61
2022/04/14 11:24:38;;;;;;;;;;;20.10;46.40;;;;;;4994663;28;20370;-60
2022/04/14 11:27:24;;;;;;;;;;;20.40;46.80;;;;;;4994282;28;20333;-59
2022/04/14 11:30:09;;;;;;;;;;;20.70;45.00;;;;;;4994324;28;19949;-61
2022/04/14 11:32:38;;;;;;;;;;;21.00;43.00;;;;;;4994552;28;19916;-60
2022/04/14 11:35:08;;;;;;;;;;;20.60;43.50;;;;;;4994071;28;20374;-60
2022/04/14 11:37:40;;;;;;;;;;;19.90;44.20;;;;;;4994300;28;19936;-60
2022/04/14 11:40:26;;;;;;;;;;;19.70;44.20;;;;;;4994322;28;19921;-61
2022/04/14 11:42:57;;;;;;;;;;;19.80;44.60;;;;;;4994085;28;19965;-61
2022/04/14 11:45:24;;;;;;;;;;;19.90;43.80;;;;;;4994278;28;19918;-60
2022/04/14 11:47:52;;;;;;;;;;;19.80;42.20;;;;;;4993509;28;19918;-60
2022/04/14 11:50:24;;;;;;;;;;;20.10;43.40;;;;;;4994241;28;19936;-59
2022/04/14 11:52:56;;;;;;;;;;;20.50;42.00;;;;;;4993686;28;20012;-59
2022/04/14 11:55:41;;;;;;;;;;;20.60;41.60;;;;;;4993706;28;19945;-60
2022/04/14 11:58:08;;;;;;;;;;;20.60;39.50;;;;;;4993845;28;19914;-61
2022/04/14 12:00:46;;;;;;;;;;;20.60;39.70;;;;;;4993762;28;19910;-64
2022/04/14 12:03:12;;;;;;;;;;;20.50;40.90;;;;;;4993296;28;19957;-62
2022/04/14 12:05:37;;;;;;;;;;;20.40;39.70;;;;;;4993577;28;19953;-60
2022/04/14 12:08:11;;;;;;;;;;;20.20;40.60;;;;;;4993617;28;20012;-62
2022/04/14 12:10:37;;;;;;;;;;;20.30;40.90;;;;;;4994089;28;19917;-60
2022/04/14 12:13:07;;;;;;;;;;;20.50;41.80;;;;;;4994039;28;19909;-61
2022/04/14 12:15:32;;;;;;;;;;;20.90;41.20;;;;;;4993725;28;19917;-63
2022/04/14 12:18:05;;;;;;;;;;;20.80;39.50;;;;;;4992216;28;19995;-63
2022/04/14 12:20:35;;;;;;;;;;;20.80;39.40;;;;;;4993775;28;19953;-61
2022/04/14 12:23:00;;;;;;;;;;;21.10;40.00;;;;;;4993372;28;19997;-61
2022/04/14 12:25:27;;;;;;;;;;;21.30;39.80;;;;;;4993219;28;20382;-61
2022/04/14 12:27:53;;;;;;;;;;;21.60;39.30;;;;;;4993351;28;19926;-62
2022/04/14 12:30:20;;;;;;;;;;;21.70;39.10;;;;;;4993238;28;20374;-62
2022/04/14 12:32:47;;;;;;;;;;;21.60;37.50;;;;;;4993305;28;19936;-62
2022/04/14 12:35:28;;;;;;;;;;;21.70;38.80;;;;;;4993041;28;19992;-65
2022/04/14 12:37:54;;;;;;;;;;;21.40;37.20;;;;;;4993032;28;19933;-62
2022/04/14 12:40:24;;;;;;;;;;;21.00;39.40;;;;;;4993174;28;19910;-62
2022/04/14 12:42:50;;;;;;;;;;;20.90;37.90;;;;;;4992987;28;19910;-62
2022/04/14 12:45:16;;;;;;;;;;;21.10;40.00;;;;;;4992985;28;19910;-61
2022/04/14 12:47:42;;;;;;;;;;;21.10;37.00;;;;;;4992393;28;19971;-61
2022/04/14 12:50:08;;;;;;;;;;;21.00;37.60;;;;;;4992828;28;19961;-61
2022/04/14 12:52:34;;;;;;;;;;;21.00;38.50;;;;;;4992631;28;19941;-59
2022/04/14 12:55:00;;;;;;;;;;;20.70;37.00;;;;;;4992894;28;19910;-60
2022/04/14 12:57:30;;;;;;;;;;;20.90;37.60;;;;;;4987346;28;20182;-60
2022/04/14 13:00:02;;;;;;;;;;;20.70;37.30;;;;;;4996353;28;19942;-61
2022/04/14 13:02:28;;;;;;;;;;;20.80;37.40;;;;;;4996677;28;19914;-62
2022/04/14 13:05:04;;;;;;;;;;;21.10;37.60;;;;;;4996772;28;20008;-61
2022/04/14 13:07:43;;;;;;;;;;;21.30;37.00;;;;;;4997057;28;19962;-60
2022/04/14 13:10:08;;;;;;;;;;;21.40;37.50;;;;;;4997142;28;19920;-61
2022/04/14 13:12:44;;;;;;;;;;;21.50;36.30;;;;;;4997512;28;20000;-71
2022/04/14 13:15:13;;;;;;;;;;;21.40;36.70;;;;;;4996335;28;19910;-60
2022/04/14 13:17:38;;;;;;;;;;;21.30;36.50;;;;;;4997238;28;19929;-63
2022/04/14 13:20:11;;;;;;;;;;;21.10;37.90;;;;;;4993458;28;20227;-64
2022/04/14 13:22:37;;;;;;;;;;;20.90;37.60;;;;;;4996164;28;19914;-66
2022/04/14 13:25:03;;;;;;;;;;;21.10;39.00;;;;;;4996117;28;19917;-64
2022/04/14 13:27:29;;;;;;;;;;;21.10;37.30;;;;;;4996171;28;20369;-62
2022/04/14 13:29:54;;;;;;;;;;;21.20;37.00;;;;;;4996355;28;19917;-62
2022/04/14 13:32:20;;;;;;;;;;;21.20;37.10;;;;;;4987005;28;19940;-61
2022/04/14 13:34:46;;;;;;;;;;;21.10;36.70;;;;;;4986114;28;19940;-63
2022/04/14 13:37:11;;;;;;;;;;;21.00;37.00;;;;;;4987088;28;19910;-62
2022/04/14 13:39:37;;;;;;;;;;;21.10;37.50;;;;;;4987713;28;19993;-64
2022/04/14 13:42:03;;;;;;;;;;;20.60;40.30;;;;;;4985482;28;19910;-63
2022/04/14 13:44:30;;;;;;;;;;;20.50;41.60;;;;;;4991265;28;20277;-63
2022/04/14 13:46:56;;;;;;;;;;;20.70;41.30;;;;;;4996637;28;19921;-62
2022/04/14 13:49:22;;;;;;;;;;;20.50;42.50;;;;;;4996761;28;19910;-64
2022/04/14 13:51:47;;;;;;;;;;;20.50;42.80;;;;;;4996572;28;19913;-63
2022/04/14 13:54:13;;;;;;;;;;;20.60;42.80;;;;;;4996873;28;19916;-62
2022/04/14 13:56:39;;;;;;;;;;;20.50;42.80;;;;;;4996932;28;19956;-63
2022/04/14 13:59:05;;;;;;;;;;;20.60;42.20;;;;;;4996776;28;19952;-64
2022/04/14 14:01:31;;;;;;;;;;;20.70;42.90;;;;;;4994739;28;19922;-65
2022/04/14 14:03:56;;;;;;;;;;;20.80;43.10;;;;;;4989602;28;19953;-63
2022/04/14 14:06:22;;;;;;;;;;;20.60;43.60;;;;;;4995583;28;19933;-62
2022/04/14 14:08:48;;;;;;;;;;;20.30;43.50;;;;;;4995160;28;20428;-63
2022/04/14 14:11:13;;;;;;;;;;;20.10;44.50;;;;;;4995339;28;19964;-64
2022/04/14 14:13:39;;;;;;;;;;;20.00;45.50;;;;;;4996485;28;19910;-62
2022/04/14 14:16:04;;;;;;;;;;;19.90;46.60;;;;;;4996443;28;19944;-63
2022/04/14 14:18:30;;;;;;;;;;;20.00;47.10;;;;;;4996250;28;19921;-62